Cub — WZY7370 — position and weather

sailwx.info

Track history (hours):
 
Tides and Currents Weather Stations Pressure Air Temp Water Temp Dewpoint Dewpoint Depression Visibility Wind Speed Wind Dir Waves Ship Positions

Cub

Owner: CALIFORNIA, STATE OF, SACRAMENTO, CA. More information available from US FCC via Universal Licensing System.

Last reported at 2017-Nov-17 23:24 UTC. Time now 2017-Nov-23 21:01 UTC.
Position N 38°04' W 122°14'.

Length 20 m; draft 2 m.

Type: Pleasure craft. MMSI: 366984060.

Date/timePositionNaut miles runAvg speedWind from/ knotsBaromVisibWave heightAir tempDewpointWater temp
2017-Nov-17 23:24N 38°04' W 122°14'0 0.2
2017-Nov-17 23:00N 38°04' W 122°14'3 4.9
2017-Nov-17 22:18N 38°03' W 122°18'3 6.7
2017-Nov-17 21:50N 38°02' W 122°22'2 5.9
2017-Nov-17 21:28N 38°03' W 122°19'4 9.1
2017-Nov-17 21:00N 38°04' W 122°14'0 0.1
2017-Nov-17 18:29N 38°04' W 122°14'5 6.3
2017-Nov-17 17:45N 38°03' W 122°19'2 7.5
2017-Nov-17 17:29N 38°02' W 122°22'3 5.4
2017-Nov-17 17:00N 38°03' W 122°19'4 7.6
2017-Nov-17 16:31N 38°04' W 122°14'0 0.3
2017-Nov-17 15:57N 38°04' W 122°14'0 0.0
2017-Nov-16 18:20N 38°04' W 122°14'3 1.8
2017-Nov-16 16:49N 38°03' W 122°17'2 7.2
2017-Nov-16 16:29N 38°04' W 122°14'0 0.0
2017-Nov-15 23:07N 38°04' W 122°14'0 0.9
2017-Nov-15 23:00N 38°04' W 122°14'4 6.3
2017-Nov-15 22:24N 38°03' W 122°19'3 6.5
2017-Nov-15 21:55N 38°02' W 122°22'4 7.9
2017-Nov-15 21:28N 38°03' W 122°18'4 7.6
2017-Nov-15 21:00N 38°04' W 122°14'0 0.0
2017-Nov-15 20:11N 38°04' W 122°14'0 0.0
2017-Nov-15 00:12N 38°04' W 122°14'0 0.4
2017-Nov-15 00:00N 38°04' W 122°14'3 2.8
2017-Nov-14 22:56N 38°03' W 122°10'2 3.6
2017-Nov-14 22:25N 38°04' W 122°12'1 0.3
2017-Nov-14 18:30N 38°04' W 122°14'2 4.5
2017-Nov-14 18:00N 38°03' W 122°17'1 2.5
2017-Nov-14 17:30N 38°03' W 122°18'2 4.0
2017-Nov-14 17:00N 38°04' W 122°16'1 2.8
2017-Nov-14 16:29N 38°04' W 122°14'0 0.0
2017-Nov-14 16:00N 38°04' W 122°14'0 0.0
2017-Nov-13 23:11N 38°04' W 122°14'0 0.3
2017-Nov-13 23:00N 38°04' W 122°14'7 6.0
2017-Nov-13 21:52N 38°02' W 122°22'  
2017-Nov-09 18:40N 38°04' W 122°14'0 0.3
2017-Nov-09 18:29N 38°04' W 122°14'7 6.5
2017-Nov-09 17:26N 38°02' W 122°22'4 7.1
2017-Nov-09 16:51N 38°03' W 122°17'3 7.5
2017-Nov-09 16:30N 38°04' W 122°14'0 0.0
2017-Nov-08 22:50N 38°04' W 122°14'4 7.1
2017-Nov-08 22:16N 38°03' W 122°19'3 8.7
2017-Nov-08 21:55N 38°02' W 122°22'3 6.6
2017-Nov-08 21:28N 38°03' W 122°19'4 6.8
2017-Nov-08 20:54N 38°04' W 122°14'0 0.0
2017-Nov-08 00:04N 38°04' W 122°14'0 1.1
2017-Nov-07 23:59N 38°04' W 122°14'  
Track history (hours):
 
Tides and Currents Weather Stations Pressure Air Temp Water Temp Dewpoint Dewpoint Depression Visibility Wind Speed Wind Dir Waves Ship Positions

Cub

Owner: CALIFORNIA, STATE OF, SACRAMENTO, CA. More information available from US FCC via Universal Licensing System.

Last reported at 2017-Nov-17 23:24 UTC. Time now 2017-Nov-23 21:01 UTC.
Position N 38°04' W 122°14'.

Length 20 m; draft 2 m.

Type: Pleasure craft. MMSI: 366984060.

Date/timePositionNaut miles runAvg speedWind from/ knotsBaromVisibWave heightAir tempDewpointWater temp
2017-Nov-17 23:24N 38°04' W 122°14'0 0.2
2017-Nov-17 23:00N 38°04' W 122°14'3 4.9
2017-Nov-17 22:18N 38°03' W 122°18'3 6.7
2017-Nov-17 21:50N 38°02' W 122°22'2 5.9
2017-Nov-17 21:28N 38°03' W 122°19'4 9.1
2017-Nov-17 21:00N 38°04' W 122°14'0 0.1
2017-Nov-17 18:29N 38°04' W 122°14'5 6.3
2017-Nov-17 17:45N 38°03' W 122°19'2 7.5
2017-Nov-17 17:29N 38°02' W 122°22'3 5.4
2017-Nov-17 17:00N 38°03' W 122°19'4 7.6
2017-Nov-17 16:31N 38°04' W 122°14'0 0.3
2017-Nov-17 15:57N 38°04' W 122°14'0 0.0
2017-Nov-16 18:20N 38°04' W 122°14'3 1.8
2017-Nov-16 16:49N 38°03' W 122°17'2 7.2
2017-Nov-16 16:29N 38°04' W 122°14'0 0.0
2017-Nov-15 23:07N 38°04' W 122°14'0 0.9
2017-Nov-15 23:00N 38°04' W 122°14'4 6.3
2017-Nov-15 22:24N 38°03' W 122°19'3 6.5
2017-Nov-15 21:55N 38°02' W 122°22'4 7.9
2017-Nov-15 21:28N 38°03' W 122°18'4 7.6
2017-Nov-15 21:00N 38°04' W 122°14'0 0.0
2017-Nov-15 20:11N 38°04' W 122°14'0 0.0
2017-Nov-15 00:12N 38°04' W 122°14'0 0.4
2017-Nov-15 00:00N 38°04' W 122°14'3 2.8
2017-Nov-14 22:56N 38°03' W 122°10'2 3.6
2017-Nov-14 22:25N 38°04' W 122°12'1 0.3
2017-Nov-14 18:30N 38°04' W 122°14'2 4.5
2017-Nov-14 18:00N 38°03' W 122°17'1 2.5
2017-Nov-14 17:30N 38°03' W 122°18'2 4.0
2017-Nov-14 17:00N 38°04' W 122°16'1 2.8
2017-Nov-14 16:29N 38°04' W 122°14'0 0.0
2017-Nov-14 16:00N 38°04' W 122°14'0 0.0
2017-Nov-13 23:11N 38°04' W 122°14'0 0.3
2017-Nov-13 23:00N 38°04' W 122°14'7 6.0
2017-Nov-13 21:52N 38°02' W 122°22'  
2017-Nov-09 18:40N 38°04' W 122°14'0 0.3
2017-Nov-09 18:29N 38°04' W 122°14'7 6.5
2017-Nov-09 17:26N 38°02' W 122°22'4 7.1
2017-Nov-09 16:51N 38°03' W 122°17'3 7.5
2017-Nov-09 16:30N 38°04' W 122°14'0 0.0
2017-Nov-08 22:50N 38°04' W 122°14'4 7.1
2017-Nov-08 22:16N 38°03' W 122°19'3 8.7
2017-Nov-08 21:55N 38°02' W 122°22'3 6.6
2017-Nov-08 21:28N 38°03' W 122°19'4 6.8
2017-Nov-08 20:54N 38°04' W 122°14'0 0.0
2017-Nov-08 00:04N 38°04' W 122°14'0 1.1
2017-Nov-07 23:59N 38°04' W 122°14'  

Dump ship's entire track history